Time,TemperatureF,DewpointF,PressureIn,WindDirection,WindDirectionDegrees,WindSpeedMPH,WindSpeedGustMPH,Humidity,HourlyPrecipIn,Conditions,Clouds,dailyrainin,SolarRadiationWatts/m^2,SoftwareType,DateUTC
2015-03-28 00:05:00,18.8,10.9,30.24,NNE,23,4.0,5.0,71,0.00,,,0.00,0,Wunderground v.1.15,2015-03-28 04:05:00,
2015-03-28 00:11:00,18.5,10.7,30.24,North,11,4.0,4.0,71,0.00,,,0.00,0,Wunderground v.1.15,2015-03-28 04:11:00,
2015-03-28 00:17:00,18.2,10.4,30.24,North,11,4.0,6.0,71,0.00,,,0.00,0,Wunderground v.1.15,2015-03-28 04:17:00,
2015-03-28 00:23:00,18.0,10.2,30.24,North,355,4.0,5.0,71,0.00,,,0.00,0,Wunderground v.1.15,2015-03-28 04:23:00,
2015-03-28 00:29:00,17.9,10.1,30.24,NNE,13,3.0,10.0,71,0.00,,,0.00,0,Wunderground v.1.15,2015-03-28 04:29:00,
2015-03-28 00:35:00,17.7,9.9,30.24,North,355,2.0,10.0,71,0.00,,,0.00,0,Wunderground v.1.15,2015-03-28 04:35:00,
2015-03-28 00:41:00,17.6,9.8,30.25,North,10,2.0,10.0,71,0.00,,,0.00,0,Wunderground v.1.15,2015-03-28 04:41:00,
2015-03-28 00:47:00,17.4,9.6,30.24,NE,47,1.0,10.0,71,0.00,,,0.00,0,Wunderground v.1.15,2015-03-28 04:47:00,
2015-03-28 00:53:00,17.3,9.5,30.25,North,5,1.0,10.0,71,0.00,,,0.00,0,Wunderground v.1.15,2015-03-28 04:53:00,
2015-03-28 00:59:00,17.1,9.6,30.25,North,9,1.0,1.0,72,0.00,,,0.00,0,Wunderground v.1.15,2015-03-28 04:59:00,
2015-03-28 01:05:00,17.0,9.5,30.25,North,9,0.0,1.0,72,0.00,,,0.00,0,Wunderground v.1.15,2015-03-28 05:05:00,
2015-03-28 01:11:00,16.8,9.3,30.25,North,360,1.0,1.0,72,0.00,,,0.00,0,Wunderground v.1.15,2015-03-28 05:11:00,
2015-03-28 01:17:00,16.7,9.2,30.25,North,360,1.0,1.0,72,0.00,,,0.00,0,Wunderground v.1.15,2015-03-28 05:17:00,
2015-03-28 01:23:00,16.6,9.4,30.25,North,360,0.0,2.0,73,0.00,,,0.00,0,Wunderground v.1.15,2015-03-28 05:23:00,
2015-03-28 01:31:00,16.3,9.2,30.25,North,360,0.0,11.0,73,0.00,,,0.00,0,Wunderground v.1.15,2015-03-28 05:31:00,
2015-03-28 01:37:00,16.2,9.1,30.25,North,360,0.0,11.0,73,0.00,,,0.00,0,Wunderground v.1.15,2015-03-28 05:37:00,
2015-03-28 01:43:00,16.2,9.1,30.25,North,360,0.0,11.0,73,0.00,,,0.00,0,Wunderground v.1.15,2015-03-28 05:43:00,
2015-03-28 01:49:00,16.1,9.0,30.25,North,360,0.0,11.0,73,0.00,,,0.00,0,Wunderground v.1.15,2015-03-28 05:49:00,
2015-03-28 01:55:00,15.8,9.0,30.25,North,360,0.0,11.0,74,0.00,,,0.00,0,Wunderground v.1.15,2015-03-28 05:55:00,
2015-03-28 02:01:00,15.7,9.2,30.24,North,360,0.0,0.0,75,0.00,,,0.00,0,Wunderground v.1.15,2015-03-28 06:01:00,
2015-03-28 02:07:00,15.5,9.0,30.25,North,360,0.0,0.0,75,0.00,,,0.00,0,Wunderground v.1.15,2015-03-28 06:07:00,
2015-03-28 02:13:00,15.4,8.9,30.25,North,360,0.0,0.0,75,0.00,,,0.00,0,Wunderground v.1.15,2015-03-28 06:13:00,
2015-03-28 02:19:00,15.5,9.3,30.25,North,360,0.0,0.0,76,0.00,,,0.00,0,Wunderground v.1.15,2015-03-28 06:19:00,
2015-03-28 02:25:00,15.4,9.2,30.24,North,360,0.0,0.0,76,0.00,,,0.00,0,Wunderground v.1.15,2015-03-28 06:25:00,
2015-03-28 02:31:00,15.2,9.0,30.24,North,360,0.0,5.0,76,0.00,,,0.00,0,Wunderground v.1.15,2015-03-28 06:31:00,
2015-03-28 02:37:00,15.0,8.8,30.24,North,360,0.0,5.0,76,0.00,,,0.00,0,Wunderground v.1.15,2015-03-28 06:37:00,
2015-03-28 02:43:00,14.8,8.6,30.25,North,360,0.0,5.0,76,0.00,,,0.00,0,Wunderground v.1.15,2015-03-28 06:43:00,
2015-03-28 02:49:00,14.6,8.7,30.24,North,360,0.0,5.0,77,0.00,,,0.00,0,Wunderground v.1.15,2015-03-28 06:49:00,
2015-03-28 02:55:00,14.4,8.5,30.24,North,360,0.0,5.0,77,0.00,,,0.00,0,Wunderground v.1.15,2015-03-28 06:55:00,
2015-03-28 03:01:00,14.4,8.8,30.25,North,360,0.0,1.0,78,0.00,,,0.00,0,Wunderground v.1.15,2015-03-28 07:01:00,
2015-03-28 03:07:00,14.5,8.9,30.25,North,360,0.0,0.0,78,0.00,,,0.00,0,Wunderground v.1.15,2015-03-28 07:07:00,
2015-03-28 03:13:00,14.5,8.9,30.24,North,360,0.0,0.0,78,0.00,,,0.00,0,Wunderground v.1.15,2015-03-28 07:13:00,
2015-03-28 03:19:00,14.6,9.0,30.24,North,360,0.0,0.0,78,0.00,,,0.00,0,Wunderground v.1.15,2015-03-28 07:19:00,
2015-03-28 03:25:00,14.6,9.0,30.25,North,360,1.0,3.0,78,0.00,,,0.00,0,Wunderground v.1.15,2015-03-28 07:25:00,
2015-03-28 03:31:00,14.7,9.1,30.24,North,360,1.0,2.0,78,0.00,,,0.00,0,Wunderground v.1.15,2015-03-28 07:31:00,
2015-03-28 03:37:00,14.8,9.2,30.25,North,360,1.0,2.0,78,0.00,,,0.00,0,Wunderground v.1.15,2015-03-28 07:37:00,
2015-03-28 03:43:00,14.9,9.3,30.25,North,360,1.0,3.0,78,0.00,,,0.00,0,Wunderground v.1.15,2015-03-28 07:43:00,
2015-03-28 03:49:00,15.0,9.4,30.25,North,360,2.0,3.0,78,0.00,,,0.00,0,Wunderground v.1.15,2015-03-28 07:49:00,
2015-03-28 03:55:00,15.1,9.5,30.24,North,360,3.0,3.0,78,0.00,,,0.00,0,Wunderground v.1.15,2015-03-28 07:55:00,
2015-03-28 04:01:00,15.2,9.3,30.25,North,360,2.0,2.0,77,0.00,,,0.00,0,Wunderground v.1.15,2015-03-28 08:01:00,
2015-03-28 04:07:00,15.2,9.3,30.25,North,360,1.0,3.0,77,0.00,,,0.00,0,Wunderground v.1.15,2015-03-28 08:07:00,
2015-03-28 04:13:00,15.2,9.3,30.25,NNW,334,2.0,5.0,77,0.00,,,0.00,0,Wunderground v.1.15,2015-03-28 08:13:00,
2015-03-28 04:19:00,15.3,9.4,30.25,NNW,334,3.0,3.0,77,0.00,,,0.00,0,Wunderground v.1.15,2015-03-28 08:19:00,
2015-03-28 04:25:00,15.4,9.5,30.25,NNW,332,2.0,5.0,77,0.00,,,0.00,0,Wunderground v.1.15,2015-03-28 08:25:00,
2015-03-28 04:31:00,15.3,9.4,30.25,NNW,332,2.0,4.0,77,0.00,,,0.00,0,Wunderground v.1.15,2015-03-28 08:31:00,
2015-03-28 04:37:00,15.3,9.4,30.25,NNW,332,2.0,2.0,77,0.00,,,0.00,0,Wunderground v.1.15,2015-03-28 08:37:00,
2015-03-28 04:43:00,15.3,9.4,30.25,NNW,332,2.0,4.0,77,0.00,,,0.00,0,Wunderground v.1.15,2015-03-28 08:43:00,
2015-03-28 04:49:00,15.3,9.4,30.25,NNW,333,2.0,5.0,77,0.00,,,0.00,0,Wunderground v.1.15,2015-03-28 08:49:00,
2015-03-28 04:55:00,15.3,9.4,30.25,NNW,334,2.0,5.0,77,0.00,,,0.00,0,Wunderground v.1.15,2015-03-28 08:55:00,
2015-03-28 05:01:00,15.3,9.4,30.25,NNW,334,2.0,4.0,77,0.00,,,0.00,0,Wunderground v.1.15,2015-03-28 09:01:00,
2015-03-28 05:07:00,15.4,9.5,30.25,NNW,329,3.0,5.0,77,0.00,,,0.00,0,Wunderground v.1.15,2015-03-28 09:07:00,
2015-03-28 05:13:00,15.4,9.2,30.26,NNW,331,3.0,5.0,76,0.00,,,0.00,0,Wunderground v.1.15,2015-03-28 09:13:00,
2015-03-28 05:19:00,15.4,9.2,30.26,NNW,331,2.0,3.0,76,0.00,,,0.00,0,Wunderground v.1.15,2015-03-28 09:19:00,
2015-03-28 05:25:00,15.4,9.2,30.26,NNW,331,2.0,3.0,76,0.00,,,0.00,0,Wunderground v.1.15,2015-03-28 09:25:00,
2015-03-28 05:31:00,15.4,9.2,30.26,NNW,331,2.0,6.0,76,0.00,,,0.00,0,Wunderground v.1.15,2015-03-28 09:31:00,
2015-03-28 05:37:00,15.5,9.3,30.26,NW,320,4.0,4.0,76,0.00,,,0.00,0,Wunderground v.1.15,2015-03-28 09:37:00,
2015-03-28 05:43:00,15.6,9.4,30.26,NW,323,3.0,6.0,76,0.00,,,0.00,0,Wunderground v.1.15,2015-03-28 09:43:00,
2015-03-28 05:49:00,15.7,9.5,30.26,NW,323,2.0,6.0,76,0.00,,,0.00,0,Wunderground v.1.15,2015-03-28 09:49:00,
2015-03-28 05:55:00,15.8,9.6,30.26,NW,325,3.0,6.0,76,0.00,,,0.00,0,Wunderground v.1.15,2015-03-28 09:55:00,
2015-03-28 06:01:00,15.9,10.0,30.27,NNW,339,4.0,5.0,77,0.00,,,0.00,0,Wunderground v.1.15,2015-03-28 10:01:00,
2015-03-28 06:07:00,16.0,10.1,30.27,NW,319,4.0,4.0,77,0.00,,,0.00,0,Wunderground v.1.15,2015-03-28 10:07:00,
2015-03-28 06:13:00,15.9,10.0,30.26,NW,320,3.0,4.0,77,0.00,,,0.00,0,Wunderground v.1.15,2015-03-28 10:13:00,
2015-03-28 06:19:00,15.9,10.0,30.27,NW,320,3.0,4.0,77,0.00,,,0.00,0,Wunderground v.1.15,2015-03-28 10:19:00,
2015-03-28 06:25:00,15.9,10.0,30.28,NW,320,3.0,4.0,77,0.00,,,0.00,0,Wunderground v.1.15,2015-03-28 10:25:00,
2015-03-28 06:31:00,15.8,9.9,30.28,NW,326,3.0,6.0,77,0.00,,,0.00,0,Wunderground v.1.15,2015-03-28 10:31:00,
2015-03-28 06:37:00,15.9,10.0,30.28,NNW,331,3.0,3.0,77,0.00,,,0.00,0,Wunderground v.1.15,2015-03-28 10:37:00,
2015-03-28 06:43:00,15.9,10.0,30.28,NNW,331,3.0,7.0,77,0.00,,,0.00,0,Wunderground v.1.15,2015-03-28 10:43:00,
2015-03-28 06:49:00,15.9,10.0,30.29,NNW,329,3.0,6.0,77,0.00,,,0.00,0,Wunderground v.1.15,2015-03-28 10:49:00,
2015-03-28 06:55:00,15.9,10.0,30.29,NNW,329,3.0,6.0,77,0.00,,,0.00,0,Wunderground v.1.15,2015-03-28 10:55:00,
2015-03-28 07:01:00,15.8,9.9,30.29,NNW,329,3.0,4.0,77,0.00,,,0.00,0,Wunderground v.1.15,2015-03-28 11:01:00,
2015-03-28 07:07:00,15.8,9.9,30.30,NNW,333,3.0,4.0,77,0.00,,,0.00,0,Wunderground v.1.15,2015-03-28 11:07:00,
2015-03-28 07:13:00,15.8,9.9,30.30,NNW,331,3.0,5.0,77,0.00,,,0.00,0,Wunderground v.1.15,2015-03-28 11:13:00,
2015-03-28 07:19:00,15.8,9.9,30.30,NNW,331,3.0,3.0,77,0.00,,,0.00,0,Wunderground v.1.15,2015-03-28 11:19:00,
2015-03-28 07:25:00,15.8,9.9,30.30,NNW,348,3.0,4.0,77,0.00,,,0.00,5,Wunderground v.1.15,2015-03-28 11:25:00,
2015-03-28 07:31:00,15.8,9.9,30.30,NNW,333,3.0,7.0,77,0.00,,,0.00,7,Wunderground v.1.15,2015-03-28 11:31:00,
2015-03-28 07:37:00,15.8,9.9,30.31,NW,317,2.0,7.0,77,0.00,,,0.00,11,Wunderground v.1.15,2015-03-28 11:37:00,
2015-03-28 07:43:00,15.8,10.2,30.31,NW,319,3.0,7.0,78,0.00,,,0.00,16,Wunderground v.1.15,2015-03-28 11:43:00,
2015-03-28 07:49:00,15.9,10.0,30.31,NW,320,3.0,7.0,77,0.00,,,0.00,21,Wunderground v.1.15,2015-03-28 11:49:00,
2015-03-28 07:55:00,16.1,10.2,30.32,NNW,330,3.0,7.0,77,0.00,,,0.00,30,Wunderground v.1.15,2015-03-28 11:55:00,
2015-03-28 08:01:00,16.2,10.3,30.32,NNW,347,3.0,5.0,77,0.00,,,0.00,37,Wunderground v.1.15,2015-03-28 12:01:00,
2015-03-28 08:07:00,16.3,10.4,30.32,North,350,3.0,4.0,77,0.00,,,0.00,42,Wunderground v.1.15,2015-03-28 12:07:00,
2015-03-28 08:13:00,16.4,10.2,30.33,NNW,333,4.0,5.0,76,0.00,,,0.00,53,Wunderground v.1.15,2015-03-28 12:13:00,
2015-03-28 08:19:00,16.6,10.3,30.33,NNW,343,4.0,6.0,76,0.00,,,0.00,60,Wunderground v.1.15,2015-03-28 12:19:00,
2015-03-28 08:25:00,16.7,10.4,30.33,North,351,4.0,6.0,76,0.00,,,0.00,65,Wunderground v.1.15,2015-03-28 12:25:00,
2015-03-28 08:31:00,16.9,10.6,30.33,North,355,4.0,7.0,76,0.00,,,0.00,77,Wunderground v.1.15,2015-03-28 12:31:00,
2015-03-28 08:37:00,17.0,10.7,30.34,NW,312,4.0,7.0,76,0.00,,,0.00,91,Wunderground v.1.15,2015-03-28 12:37:00,
2015-03-28 08:43:00,17.2,10.9,30.34,North,350,4.0,7.0,76,0.00,,,0.00,107,Wunderground v.1.15,2015-03-28 12:43:00,
2015-03-28 08:49:00,17.4,10.8,30.34,North,349,4.0,7.0,75,0.00,,,0.00,81,Wunderground v.1.15,2015-03-28 12:49:00,
2015-03-28 08:55:00,17.4,10.8,30.34,NNW,340,4.0,7.0,75,0.00,,,0.00,113,Wunderground v.1.15,2015-03-28 12:55:00,
2015-03-28 09:01:00,17.6,11.0,30.34,NW,312,3.0,4.0,75,0.00,,,0.00,142,Wunderground v.1.15,2015-03-28 13:01:00,
2015-03-28 09:07:00,17.7,11.1,30.34,NW,317,4.0,4.0,75,0.00,,,0.00,109,Wunderground v.1.15,2015-03-28 13:07:00,
2015-03-28 09:13:00,17.7,10.8,30.35,North,355,5.0,6.0,74,0.00,,,0.00,163,Wunderground v.1.15,2015-03-28 13:13:00,
2015-03-28 09:19:00,18.0,11.4,30.35,North,350,5.0,5.0,75,0.00,,,0.00,193,Wunderground v.1.15,2015-03-28 13:19:00,
2015-03-28 09:25:00,18.5,11.9,30.35,North,355,5.0,7.0,75,0.00,,,0.00,230,Wunderground v.1.15,2015-03-28 13:25:00,
2015-03-28 09:31:00,18.9,12.0,30.35,NNW,338,5.0,9.0,74,0.00,,,0.00,396,Wunderground v.1.15,2015-03-28 13:31:00,
2015-03-28 09:37:00,19.3,12.4,30.35,North,350,5.0,9.0,74,0.00,,,0.00,128,Wunderground v.1.15,2015-03-28 13:37:00,
2015-03-28 09:43:00,19.6,12.7,30.35,North,5,4.0,9.0,74,0.00,,,0.00,221,Wunderground v.1.15,2015-03-28 13:43:00,
2015-03-28 09:49:00,19.7,12.4,30.36,North,10,3.0,9.0,73,0.00,,,0.00,158,Wunderground v.1.15,2015-03-28 13:49:00,
2015-03-28 09:55:00,19.8,12.5,30.36,North,360,5.0,9.0,73,0.00,,,0.00,234,Wunderground v.1.15,2015-03-28 13:55:00,
2015-03-28 10:01:00,20.1,12.8,30.36,North,5,4.0,6.0,73,0.00,,,0.00,128,Wunderground v.1.15,2015-03-28 14:01:00,
2015-03-28 10:07:00,20.4,13.1,30.36,North,5,5.0,6.0,73,0.00,,,0.00,490,Wunderground v.1.15,2015-03-28 14:07:00,
2015-03-28 10:13:00,21.1,14.1,30.36,NNE,18,5.0,6.0,74,0.00,,,0.00,504,Wunderground v.1.15,2015-03-28 14:13:00,
2015-03-28 10:19:00,22.2,14.9,30.36,NNE,15,4.0,5.0,73,0.00,,,0.00,522,Wunderground v.1.15,2015-03-28 14:19:00,
2015-03-28 10:25:00,22.8,14.5,30.36,NNE,28,5.0,9.0,70,0.00,,,0.00,538,Wunderground v.1.15,2015-03-28 14:25:00,
2015-03-28 10:31:00,23.2,14.5,30.36,NNW,327,5.0,10.0,69,0.00,,,0.00,557,Wunderground v.1.15,2015-03-28 14:31:00,
2015-03-28 10:37:00,23.8,15.4,30.36,North,360,4.0,4.0,70,0.00,,,0.00,577,Wunderground v.1.15,2015-03-28 14:37:00,
2015-03-28 10:43:00,24.9,16.2,30.36,NE,40,3.0,10.0,69,0.00,,,0.00,601,Wunderground v.1.15,2015-03-28 14:43:00,
2015-03-28 10:49:00,25.3,15.5,30.36,North,355,3.0,10.0,66,0.00,,,0.00,679,Wunderground v.1.15,2015-03-28 14:49:00,
2015-03-28 10:55:00,25.4,14.5,30.37,North,355,6.0,10.0,63,0.00,,,0.00,701,Wunderground v.1.15,2015-03-28 14:55:00,
2015-03-28 11:01:00,25.2,14.0,30.37,NE,38,8.0,8.0,62,0.00,,,0.00,698,Wunderground v.1.15,2015-03-28 15:01:00,
2015-03-28 11:07:00,25.6,14.4,30.37,NNW,340,6.0,7.0,62,0.00,,,0.00,682,Wunderground v.1.15,2015-03-28 15:07:00,
2015-03-28 11:13:00,25.8,13.8,30.37,North,355,6.0,7.0,60,0.00,,,0.00,707,Wunderground v.1.15,2015-03-28 15:13:00,
2015-03-28 11:19:00,26.1,14.8,30.36,North,5,6.0,6.0,62,0.00,,,0.00,710,Wunderground v.1.15,2015-03-28 15:19:00,
2015-03-28 11:25:00,26.2,14.2,30.37,NNE,16,6.0,6.0,60,0.00,,,0.00,701,Wunderground v.1.15,2015-03-28 15:25:00,
2015-03-28 11:31:00,26.3,14.3,30.37,North,355,6.0,11.0,60,0.00,,,0.00,705,Wunderground v.1.15,2015-03-28 15:31:00,
2015-03-28 11:37:00,26.5,14.5,30.36,NNW,344,6.0,6.0,60,0.00,,,0.00,728,Wunderground v.1.15,2015-03-28 15:37:00,
2015-03-28 11:43:00,26.9,14.1,30.36,NE,51,5.0,11.0,58,0.00,,,0.00,649,Wunderground v.1.15,2015-03-28 15:43:00,
2015-03-28 11:49:00,27.0,13.4,30.36,North,10,5.0,11.0,56,0.00,,,0.00,775,Wunderground v.1.15,2015-03-28 15:49:00,
2015-03-28 11:55:00,26.9,13.3,30.36,North,5,7.0,11.0,56,0.00,,,0.00,744,Wunderground v.1.15,2015-03-28 15:55:00,
2015-03-28 12:01:00,27.0,13.4,30.36,NNW,346,6.0,11.0,56,0.00,,,0.00,770,Wunderground v.1.15,2015-03-28 16:01:00,
2015-03-28 12:07:00,27.5,15.8,30.36,North,350,7.0,7.0,61,0.00,,,0.00,789,Wunderground v.1.15,2015-03-28 16:07:00,
2015-03-28 12:13:00,27.7,13.2,30.36,NNE,31,7.0,8.0,54,0.00,,,0.00,773,Wunderground v.1.15,2015-03-28 16:13:00,
2015-03-28 12:19:00,27.9,13.4,30.37,NNW,348,6.0,10.0,54,0.00,,,0.00,788,Wunderground v.1.15,2015-03-28 16:19:00,
2015-03-28 12:25:00,28.4,13.9,30.37,North,11,6.0,10.0,54,0.00,,,0.00,800,Wunderground v.1.15,2015-03-28 16:25:00,
2015-03-28 12:31:00,28.6,14.5,30.36,North,5,6.0,13.0,55,0.00,,,0.00,773,Wunderground v.1.15,2015-03-28 16:31:00,
2015-03-28 12:37:00,28.9,13.5,30.36,NE,49,6.0,6.0,52,0.00,,,0.00,775,Wunderground v.1.15,2015-03-28 16:37:00,
2015-03-28 12:43:00,29.2,13.7,30.36,NNW,338,5.0,13.0,52,0.00,,,0.00,766,Wunderground v.1.15,2015-03-28 16:43:00,
2015-03-28 12:49:00,29.4,14.8,30.36,NE,39,5.0,13.0,54,0.00,,,0.00,742,Wunderground v.1.15,2015-03-28 16:49:00,
2015-03-28 12:55:00,29.8,14.3,30.36,NNW,327,5.0,13.0,52,0.00,,,0.00,751,Wunderground v.1.15,2015-03-28 16:55:00,
2015-03-28 13:01:00,30.1,14.6,30.36,NE,38,5.0,5.0,52,0.00,,,0.00,775,Wunderground v.1.15,2015-03-28 17:01:00,
2015-03-28 13:07:00,30.2,14.7,30.36,NW,306,5.0,7.0,52,0.00,,,0.00,800,Wunderground v.1.15,2015-03-28 17:07:00,
2015-03-28 13:13:00,29.7,13.8,30.35,NNW,345,6.0,7.0,51,0.00,,,0.00,807,Wunderground v.1.15,2015-03-28 17:13:00,
2015-03-28 13:19:00,29.9,13.5,30.35,WNW,300,5.0,5.0,50,0.00,,,0.00,816,Wunderground v.1.15,2015-03-28 17:19:00,
2015-03-28 13:25:00,29.8,13.4,30.34,North,360,6.0,10.0,50,0.00,,,0.00,821,Wunderground v.1.15,2015-03-28 17:25:00,
2015-03-28 13:31:00,30.2,13.8,30.34,North,5,6.0,13.0,50,0.00,,,0.00,823,Wunderground v.1.15,2015-03-28 17:31:00,
2015-03-28 13:37:00,30.6,14.1,30.34,NNW,338,4.0,4.0,50,0.00,,,0.00,816,Wunderground v.1.15,2015-03-28 17:37:00,
2015-03-28 13:43:00,30.7,14.2,30.35,North,5,5.0,13.0,50,0.00,,,0.00,812,Wunderground v.1.15,2015-03-28 17:43:00,
2015-03-28 13:49:00,31.0,14.0,30.34,NNE,13,4.0,13.0,49,0.00,,,0.00,812,Wunderground v.1.15,2015-03-28 17:49:00,
2015-03-28 13:55:00,31.1,14.1,30.34,ENE,68,5.0,13.0,49,0.00,,,0.00,809,Wunderground v.1.15,2015-03-28 17:55:00,
2015-03-28 14:01:00,31.3,13.4,30.33,NNW,331,5.0,5.0,47,0.00,,,0.00,809,Wunderground v.1.15,2015-03-28 18:01:00,
2015-03-28 14:07:00,31.5,14.0,30.33,NNW,329,4.0,5.0,48,0.00,,,0.00,802,Wunderground v.1.15,2015-03-28 18:07:00,
2015-03-28 14:13:00,31.5,14.5,30.33,NW,319,5.0,6.0,49,0.00,,,0.00,807,Wunderground v.1.15,2015-03-28 18:13:00,
2015-03-28 14:19:00,32.0,15.0,30.33,North,349,5.0,7.0,49,0.00,,,0.00,800,Wunderground v.1.15,2015-03-28 18:19:00,
2015-03-28 14:25:00,32.2,14.2,30.33,North,360,5.0,9.0,47,0.00,,,0.00,800,Wunderground v.1.15,2015-03-28 18:25:00,
2015-03-28 14:31:00,32.4,13.9,30.33,North,355,3.0,14.0,46,0.00,,,0.00,796,Wunderground v.1.15,2015-03-28 18:31:00,
2015-03-28 14:37:00,32.3,14.3,30.33,North,11,4.0,14.0,47,0.00,,,0.00,782,Wunderground v.1.15,2015-03-28 18:37:00,
2015-03-28 14:43:00,32.5,13.0,30.33,NE,36,4.0,14.0,44,0.00,,,0.00,772,Wunderground v.1.15,2015-03-28 18:43:00,
2015-03-28 14:49:00,32.9,13.3,30.33,NNE,27,4.0,14.0,44,0.00,,,0.00,754,Wunderground v.1.15,2015-03-28 18:49:00,
2015-03-28 14:55:00,33.2,14.1,30.33,ENE,64,4.0,14.0,45,0.00,,,0.00,729,Wunderground v.1.15,2015-03-28 18:55:00,
2015-03-28 15:01:00,33.3,13.2,30.33,NNW,329,4.0,5.0,43,0.00,,,0.00,708,Wunderground v.1.15,2015-03-28 19:01:00,
2015-03-28 15:07:00,33.4,13.8,30.33,North,355,5.0,6.0,44,0.00,,,0.00,668,Wunderground v.1.15,2015-03-28 19:07:00,
2015-03-28 15:13:00,33.2,13.1,30.33,NW,307,5.0,8.0,43,0.00,,,0.00,642,Wunderground v.1.15,2015-03-28 19:13:00,
2015-03-28 15:19:00,33.3,14.2,30.33,NW,312,5.0,6.0,45,0.00,,,0.00,610,Wunderground v.1.15,2015-03-28 19:19:00,
2015-03-28 15:25:00,33.3,13.7,30.33,NNW,339,5.0,6.0,44,0.00,,,0.00,589,Wunderground v.1.15,2015-03-28 19:25:00,
2015-03-28 15:31:00,33.6,14.0,30.33,North,355,4.0,13.0,44,0.00,,,0.00,568,Wunderground v.1.15,2015-03-28 19:31:00,
2015-03-28 15:37:00,33.7,12.5,30.32,ESE,115,4.0,13.0,41,0.00,,,0.00,545,Wunderground v.1.15,2015-03-28 19:37:00,
2015-03-28 15:43:00,34.0,13.3,30.33,North,350,6.0,13.0,42,0.00,,,0.00,540,Wunderground v.1.15,2015-03-28 19:43:00,
2015-03-28 15:49:00,33.9,12.6,30.33,West,275,6.0,13.0,41,0.00,,,0.00,534,Wunderground v.1.15,2015-03-28 19:49:00,
2015-03-28 15:55:00,33.7,13.0,30.33,North,5,6.0,13.0,42,0.00,,,0.00,527,Wunderground v.1.15,2015-03-28 19:55:00,
2015-03-28 16:01:00,34.3,13.6,30.32,North,355,5.0,10.0,42,0.00,,,0.00,526,Wunderground v.1.15,2015-03-28 20:01:00,
2015-03-28 16:07:00,34.2,12.9,30.32,North,360,4.0,4.0,41,0.00,,,0.00,524,Wunderground v.1.15,2015-03-28 20:07:00,
2015-03-28 16:13:00,34.3,12.4,30.32,NNE,20,4.0,6.0,40,0.00,,,0.00,524,Wunderground v.1.15,2015-03-28 20:13:00,
2015-03-28 16:19:00,34.4,12.5,30.32,North,351,5.0,9.0,40,0.00,,,0.00,527,Wunderground v.1.15,2015-03-28 20:19:00,
2015-03-28 16:25:00,34.5,12.6,30.32,NNW,348,5.0,9.0,40,0.00,,,0.00,527,Wunderground v.1.15,2015-03-28 20:25:00,
2015-03-28 16:31:00,34.7,13.9,30.32,NE,40,4.0,10.0,42,0.00,,,0.00,527,Wunderground v.1.15,2015-03-28 20:31:00,
2015-03-28 16:37:00,35.1,13.7,30.32,West,281,3.0,10.0,41,0.00,,,0.00,526,Wunderground v.1.15,2015-03-28 20:37:00,
2015-03-28 16:43:00,35.3,13.3,30.32,North,360,4.0,10.0,40,0.00,,,0.00,520,Wunderground v.1.15,2015-03-28 20:43:00,
2015-03-28 16:49:00,35.0,13.1,30.32,NW,304,5.0,10.0,40,0.00,,,0.00,517,Wunderground v.1.15,2015-03-28 20:49:00,
2015-03-28 16:55:00,35.0,11.9,30.32,NNW,344,3.0,10.0,38,0.00,,,0.00,508,Wunderground v.1.15,2015-03-28 20:55:00,
2015-03-28 17:01:00,35.3,11.6,30.32,WNW,289,3.0,6.0,37,0.00,,,0.00,496,Wunderground v.1.15,2015-03-28 21:01:00,
2015-03-28 17:07:00,35.5,13.0,30.32,NW,309,4.0,4.0,39,0.00,,,0.00,482,Wunderground v.1.15,2015-03-28 21:07:00,
2015-03-28 17:13:00,35.6,12.5,30.32,NE,52,4.0,5.0,38,0.00,,,0.00,462,Wunderground v.1.15,2015-03-28 21:13:00,
2015-03-28 17:19:00,35.5,11.8,30.32,North,355,5.0,8.0,37,0.00,,,0.00,446,Wunderground v.1.15,2015-03-28 21:19:00,
2015-03-28 17:25:00,35.2,12.1,30.32,NW,321,5.0,8.0,38,0.00,,,0.00,427,Wunderground v.1.15,2015-03-28 21:25:00,
2015-03-28 17:31:00,35.3,11.6,30.32,WNW,284,5.0,11.0,37,0.00,,,0.00,408,Wunderground v.1.15,2015-03-28 21:31:00,
2015-03-28 17:37:00,35.4,12.3,30.32,NNW,342,5.0,11.0,38,0.00,,,0.00,390,Wunderground v.1.15,2015-03-28 21:37:00,
2015-03-28 17:43:00,35.5,12.4,30.32,NNW,335,4.0,11.0,38,0.00,,,0.00,366,Wunderground v.1.15,2015-03-28 21:43:00,
2015-03-28 17:49:00,35.6,11.2,30.33,WNW,298,3.0,11.0,36,0.00,,,0.00,345,Wunderground v.1.15,2015-03-28 21:49:00,
2015-03-28 17:55:00,35.3,11.6,30.33,NW,313,4.0,11.0,37,0.00,,,0.00,316,Wunderground v.1.15,2015-03-28 21:55:00,
2015-03-28 18:01:00,35.3,11.0,30.33,NW,310,4.0,6.0,36,0.00,,,0.00,297,Wunderground v.1.15,2015-03-28 22:01:00,
2015-03-28 18:07:00,35.1,11.4,30.33,NNW,346,5.0,5.0,37,0.00,,,0.00,269,Wunderground v.1.15,2015-03-28 22:07:00,
2015-03-28 18:13:00,35.1,12.0,30.33,North,5,5.0,5.0,38,0.00,,,0.00,251,Wunderground v.1.15,2015-03-28 22:13:00,
2015-03-28 18:21:00,35.5,11.8,30.33,North,5,3.0,7.0,37,0.00,,,0.00,223,Wunderground v.1.15,2015-03-28 22:21:00,
2015-03-28 18:27:00,35.3,11.0,30.33,NW,306,3.0,3.0,36,0.00,,,0.00,200,Wunderground v.1.15,2015-03-28 22:27:00,
2015-03-28 18:33:00,35.2,11.5,30.33,WNW,300,4.0,9.0,37,0.00,,,0.00,178,Wunderground v.1.15,2015-03-28 22:33:00,
2015-03-28 18:39:00,35.3,12.2,30.34,West,267,3.0,9.0,38,0.00,,,0.00,148,Wunderground v.1.15,2015-03-28 22:39:00,
2015-03-28 18:45:00,35.3,11.6,30.34,NW,310,3.0,9.0,37,0.00,,,0.00,111,Wunderground v.1.15,2015-03-28 22:45:00,
2015-03-28 18:51:00,35.2,12.1,30.34,NW,310,3.0,9.0,38,0.00,,,0.00,100,Wunderground v.1.15,2015-03-28 22:51:00,
2015-03-28 18:59:00,35.0,11.3,30.34,WNW,293,4.0,4.0,37,0.00,,,0.00,81,Wunderground v.1.15,2015-03-28 22:59:00,
2015-03-28 19:05:00,34.9,11.2,30.34,NW,308,4.0,4.0,37,0.00,,,0.00,62,Wunderground v.1.15,2015-03-28 23:05:00,
2015-03-28 19:11:00,34.8,10.5,30.34,NW,310,2.0,3.0,36,0.00,,,0.00,58,Wunderground v.1.15,2015-03-28 23:11:00,
2015-03-28 19:17:00,34.7,10.4,30.34,North,360,2.0,4.0,36,0.00,,,0.00,42,Wunderground v.1.15,2015-03-28 23:17:00,
2015-03-28 19:23:00,34.4,11.4,30.34,North,360,3.0,3.0,38,0.00,,,0.00,32,Wunderground v.1.15,2015-03-28 23:23:00,
2015-03-28 19:29:00,34.2,10.6,30.34,North,360,2.0,2.0,37,0.00,,,0.00,19,Wunderground v.1.15,2015-03-28 23:29:00,
2015-03-28 19:35:00,33.9,10.3,30.35,North,360,1.0,9.0,37,0.00,,,0.00,16,Wunderground v.1.15,2015-03-28 23:35:00,
2015-03-28 19:41:00,33.7,10.7,30.35,NNW,331,1.0,9.0,38,0.00,,,0.00,12,Wunderground v.1.15,2015-03-28 23:41:00,
2015-03-28 19:47:00,33.4,11.1,30.35,NNW,331,1.0,9.0,39,0.00,,,0.00,9,Wunderground v.1.15,2015-03-28 23:47:00,
2015-03-28 19:55:00,33.1,10.8,30.35,NNW,331,0.0,9.0,39,0.00,,,0.00,5,Wunderground v.1.15,2015-03-28 23:55:00,
2015-03-28 20:01:00,32.8,11.1,30.35,NNW,331,0.0,0.0,40,0.00,,,0.00,0,Wunderground v.1.15,2015-03-29 00:01:00,
2015-03-28 20:07:00,32.5,10.8,30.35,NNW,331,0.0,0.0,40,0.00,,,0.00,0,Wunderground v.1.15,2015-03-29 00:07:00,
2015-03-28 20:13:00,32.3,11.2,30.35,NNW,331,0.0,0.0,41,0.00,,,0.00,0,Wunderground v.1.15,2015-03-29 00:13:00,
2015-03-28 20:19:00,31.9,11.4,30.35,NNW,331,0.0,0.0,42,0.00,,,0.00,0,Wunderground v.1.15,2015-03-29 00:19:00,
2015-03-28 20:25:00,31.4,10.9,30.35,NNW,331,0.0,0.0,42,0.00,,,0.00,0,Wunderground v.1.15,2015-03-29 00:25:00,
2015-03-28 20:31:00,30.9,11.0,30.35,NNW,331,0.0,6.0,43,0.00,,,0.00,0,Wunderground v.1.15,2015-03-29 00:31:00,
2015-03-28 20:37:00,30.5,10.6,30.35,NNW,331,0.0,6.0,43,0.00,,,0.00,0,Wunderground v.1.15,2015-03-29 00:37:00,
2015-03-28 20:43:00,30.1,10.8,30.35,NNW,331,0.0,6.0,44,0.00,,,0.00,0,Wunderground v.1.15,2015-03-29 00:43:00,
2015-03-28 20:49:00,29.6,10.8,30.35,NNW,331,0.0,6.0,45,0.00,,,0.00,0,Wunderground v.1.15,2015-03-29 00:49:00,
2015-03-28 20:55:00,29.0,10.8,30.35,NNW,331,0.0,6.0,46,0.00,,,0.00,0,Wunderground v.1.15,2015-03-29 00:55:00,
2015-03-28 21:01:00,28.7,11.0,30.35,NNW,331,0.0,0.0,47,0.00,,,0.00,0,Wunderground v.1.15,2015-03-29 01:01:00,
2015-03-28 21:07:00,28.5,11.3,30.36,NNW,331,0.0,0.0,48,0.00,,,0.00,0,Wunderground v.1.15,2015-03-29 01:07:00,
2015-03-28 21:13:00,28.2,11.0,30.36,NNW,331,0.0,0.0,48,0.00,,,0.00,0,Wunderground v.1.15,2015-03-29 01:13:00,
2015-03-28 21:19:00,28.0,11.3,30.36,NNW,331,0.0,0.0,49,0.00,,,0.00,0,Wunderground v.1.15,2015-03-29 01:19:00,
2015-03-28 21:25:00,27.6,10.9,30.36,NNW,331,0.0,0.0,49,0.00,,,0.00,0,Wunderground v.1.15,2015-03-29 01:25:00,
2015-03-28 21:31:00,27.2,11.4,30.36,NNW,331,0.0,0.0,51,0.00,,,0.00,0,Wunderground v.1.15,2015-03-29 01:31:00,
2015-03-28 21:37:00,27.0,11.7,30.36,NNW,331,0.0,0.0,52,0.00,,,0.00,0,Wunderground v.1.15,2015-03-29 01:37:00,